Time;durP1;ratioP1;P1;durP2;ratioP2;P2;SDS_P1;SDS_P2;PMS_P1;PMS_P2;Temp;Humidity;BMP_temperature;BMP_pressure;BME280_temperature;BME280_humidity;BME280_pressure;Samples;Min_cycle;Max_cycle;Signal;HPM_P1;HPM_P2
2023/12/04 00:01:29;;;;;;;14.13;8.20;;;0.00;99.90;;;-0.01;80.86;100777.03;4893306;28;25049;-68
2023/12/04 00:03:52;;;;;;;14.03;8.03;;;0.00;99.90;;;0.02;80.70;100781.25;4889298;28;24447;-69
2023/12/04 00:06:14;;;;;;;12.98;8.20;;;0.00;99.90;;;-0.01;80.86;100774.47;4894393;28;24549;-69
2023/12/04 00:08:37;;;;;;;14.15;8.43;;;0.00;99.90;;;-0.01;80.55;100770.19;4890232;28;24497;-67
2023/12/04 00:10:59;;;;;;;13.90;8.50;;;0.00;99.90;;;0.00;80.70;100768.47;4888508;28;24907;-68
2023/12/04 00:13:21;;;;;;;12.93;7.95;;;0.00;99.90;;;-0.02;80.63;100773.63;4889149;28;25030;-68
2023/12/04 00:15:44;;;;;;;14.00;8.23;;;0.00;99.90;;;-0.03;80.77;100774.53;4889556;28;24461;-69
2023/12/04 00:18:06;;;;;;;13.95;8.20;;;0.00;99.90;;;-0.02;80.83;100772.78;4882269;28;24438;-69
2023/12/04 00:20:28;;;;;;;13.65;8.05;;;0.00;99.90;;;-0.05;80.62;100758.34;4892758;28;24456;-68
2023/12/04 00:22:50;;;;;;;12.50;7.70;;;0.00;99.90;;;-0.06;80.61;100759.19;4883480;28;24463;-69
2023/12/04 00:25:12;;;;;;;13.27;8.07;;;0.00;99.90;;;-0.09;80.83;100761.88;4885781;28;24458;-68
2023/12/04 00:27:34;;;;;;;14.73;8.50;;;0.00;99.90;;;-0.08;80.57;100766.09;4881873;28;24463;-69
2023/12/04 00:29:56;;;;;;;14.05;8.48;;;0.00;99.90;;;-0.10;80.81;100767.00;4888531;28;24448;-69
2023/12/04 00:32:18;;;;;;;14.60;8.43;;;0.00;99.90;;;-0.12;81.02;100769.63;4890886;28;24538;-69
2023/12/04 00:34:40;;;;;;;15.75;9.27;;;-0.10;99.90;;;-0.15;80.95;100764.56;4891472;28;24506;-69
2023/12/04 00:37:02;;;;;;;16.23;9.60;;;-0.10;99.90;;;-0.16;81.36;100767.19;4890880;28;24427;-69
2023/12/04 00:39:24;;;;;;;16.33;9.30;;;-0.10;99.90;;;-0.24;81.44;100759.69;4890459;28;24508;-69
2023/12/04 00:41:46;;;;;;;17.42;10.27;;;-0.10;99.90;;;-0.30;81.85;100756.44;4889125;28;24530;-69
2023/12/04 00:44:08;;;;;;;18.42;10.60;;;-0.20;99.90;;;-0.36;81.55;100751.47;4877194;28;25049;-69
2023/12/04 00:46:30;;;;;;;17.45;9.85;;;-0.20;99.90;;;-0.45;82.24;100751.69;4877047;28;24478;-69
2023/12/04 00:48:52;;;;;;;19.05;10.45;;;-0.30;99.90;;;-0.49;82.52;100739.84;4885839;28;24530;-69
2023/12/04 00:51:14;;;;;;;18.20;10.35;;;-0.40;99.90;;;-0.59;83.35;100734.09;4884686;28;25067;-68
2023/12/04 00:53:36;;;;;;;17.42;9.68;;;-0.50;99.90;;;-0.60;83.33;100736.72;4888245;28;24458;-69
2023/12/04 00:55:58;;;;;;;17.80;9.50;;;-0.50;99.90;;;-0.60;83.56;100732.44;4895841;28;24488;-69
2023/12/04 00:58:20;;;;;;;19.00;10.57;;;-0.50;99.90;;;-0.64;83.59;100728.25;4891536;28;24446;-69
2023/12/04 01:00:42;;;;;;;18.70;10.53;;;-0.60;99.90;;;-0.69;83.11;100719.00;4895168;28;25024;-69
2023/12/04 01:03:04;;;;;;;18.13;10.30;;;-0.60;99.90;;;-0.72;83.77;100722.47;4887911;28;24496;-69
2023/12/04 01:05:26;;;;;;;19.50;10.60;;;-0.60;99.90;;;-0.72;84.45;100717.34;4884725;28;25075;-69
2023/12/04 01:07:48;;;;;;;19.17;10.73;;;-0.60;99.90;;;-0.73;84.11;100709.69;4892760;28;24821;-69
2023/12/04 01:10:10;;;;;;;17.15;10.23;;;-0.60;99.90;;;-0.77;84.39;100714.06;4878757;28;24442;-68
2023/12/04 01:12:32;;;;;;;17.98;10.35;;;-0.60;99.90;;;-0.83;84.57;100707.34;4892620;28;24430;-69
2023/12/04 01:14:54;;;;;;;17.58;9.80;;;-0.70;99.90;;;-0.83;84.33;100714.19;4884739;28;25422;-67
2023/12/04 01:17:16;;;;;;;19.77;10.80;;;-0.70;99.90;;;-0.87;84.72;100710.03;4883632;28;24534;-65
2023/12/04 01:19:38;;;;;;;21.17;10.60;;;-0.70;99.90;;;-0.83;84.61;100712.47;4881132;28;24498;-69
2023/12/04 01:22:00;;;;;;;18.75;10.85;;;-0.80;99.90;;;-0.89;85.17;100704.09;4876751;28;24443;-69
2023/12/04 01:24:22;;;;;;;19.33;10.77;;;-0.80;99.90;;;-0.88;85.26;100703.22;4882240;28;24450;-69
2023/12/04 01:26:44;;;;;;;17.67;10.65;;;-0.80;99.90;;;-0.86;85.02;100709.16;4885921;28;24545;-69
2023/12/04 01:29:06;;;;;;;18.95;10.50;;;-0.80;99.90;;;-0.84;85.22;100707.41;4888218;28;24489;-67
2023/12/04 01:31:28;;;;;;;19.83;11.18;;;-0.80;99.90;;;-0.82;85.47;100701.38;4876042;28;24427;-67
2023/12/04 01:33:50;;;;;;;18.90;10.77;;;-0.70;99.90;;;-0.82;85.81;100700.50;4886815;28;24475;-69
2023/12/04 01:36:13;;;;;;;19.53;10.47;;;-0.70;99.90;;;-0.85;85.20;100698.00;4894051;28;24453;-67
2023/12/04 01:38:35;;;;;;;18.63;10.13;;;-0.80;99.90;;;-0.85;85.24;100709.13;4876877;28;24478;-67
2023/12/04 01:40:56;;;;;;;17.88;10.68;;;-0.80;99.90;;;-0.90;85.35;100705.00;4885749;28;24451;-69
2023/12/04 01:43:18;;;;;;;17.15;9.75;;;-0.80;99.90;;;-0.93;84.97;100707.63;4895896;28;24455;-69
2023/12/04 01:45:41;;;;;;;17.27;10.18;;;-0.80;99.90;;;-0.96;85.81;100703.41;4893039;28;24533;-65
2023/12/04 01:48:05;;;;;;;18.10;10.60;;;-0.90;99.90;;;-0.93;85.59;100702.50;4891721;28;24465;-69
2023/12/04 01:50:27;;;;;;;19.60;10.90;;;-0.80;99.90;;;-0.96;85.89;100695.72;4893978;28;24494;-69
2023/12/04 01:52:51;;;;;;;20.02;10.95;;;-0.80;99.90;;;-0.95;86.34;100692.28;4890485;28;25139;-69
2023/12/04 01:55:15;;;;;;;18.50;11.07;;;-0.90;99.90;;;-0.98;86.28;100688.97;4875374;28;24435;-70
2023/12/04 01:57:36;;;;;;;21.35;11.27;;;-0.90;99.90;;;-1.02;86.37;100682.22;4889174;28;24538;-66
2023/12/04 01:59:59;;;;;;;19.15;10.60;;;-0.90;99.90;;;-0.98;86.39;100689.78;4883528;28;24454;-69
2023/12/04 02:02:21;;;;;;;19.77;10.70;;;-0.90;99.90;;;-0.97;86.58;100677.84;4882751;28;24493;-69
2023/12/04 02:04:43;;;;;;;18.97;11.10;;;-0.90;99.90;;;-1.00;85.78;100671.06;4886051;28;24514;-69
2023/12/04 02:07:05;;;;;;;19.63;10.57;;;-0.90;99.90;;;-1.00;86.17;100671.06;4875260;28;24533;-69
2023/12/04 02:09:29;;;;;;;19.67;10.70;;;-0.90;99.90;;;-0.96;86.25;100670.09;4889619;28;24496;-69
2023/12/04 02:11:52;;;;;;;19.23;10.80;;;-0.90;99.90;;;-0.97;86.72;100667.59;4893527;28;24500;-69
2023/12/04 02:14:19;;;;;;;19.10;10.45;;;-0.90;99.90;;;-0.93;86.31;100664.91;4893276;28;24463;-69
2023/12/04 02:16:42;;;;;;;21.23;10.67;;;-0.90;99.90;;;-0.92;86.36;100665.78;4890684;28;24445;-70
2023/12/04 02:19:05;;;;;;;21.40;10.30;;;-0.90;99.90;;;-0.89;86.18;100665.69;4874997;28;24880;-69
2023/12/04 02:21:27;;;;;;;17.05;10.27;;;-0.80;99.90;;;-0.90;85.78;100664.84;4875490;28;24434;-69
2023/12/04 02:23:52;;;;;;;19.92;10.32;;;-0.80;99.90;;;-0.91;85.43;100664.88;4888869;28;25010;-68
2023/12/04 02:26:19;;;;;;;17.90;9.60;;;-0.80;99.90;;;-0.92;85.31;100656.38;4888837;28;24522;-68
2023/12/04 02:28:45;;;;;;;18.15;10.20;;;-0.80;99.90;;;-0.95;85.03;100658.16;4876119;28;24958;-68
2023/12/04 02:31:09;;;;;;;19.73;10.40;;;-0.80;99.90;;;-1.00;85.63;100649.75;4907933;28;25001;-68
2023/12/04 02:33:33;;;;;;;18.13;10.35;;;-0.90;99.90;;;-0.99;86.25;100648.88;4893316;28;24439;-69
2023/12/04 02:35:57;;;;;;;17.97;10.20;;;-0.90;99.90;;;-1.01;84.97;100645.50;4886257;28;24877;-69
2023/12/04 02:38:19;;;;;;;18.38;10.82;;;-0.90;99.90;;;-1.07;85.63;100637.97;4893672;28;24431;-68
2023/12/04 02:40:41;;;;;;;18.25;10.40;;;-1.00;99.90;;;-1.05;85.83;100639.63;4884859;28;24447;-67
2023/12/04 02:43:03;;;;;;;19.38;10.60;;;-1.00;99.90;;;-1.03;85.46;100630.19;4891566;28;25081;-70
2023/12/04 02:45:25;;;;;;;20.35;11.35;;;-1.00;99.90;;;-1.04;85.52;100627.63;4891040;28;24458;-68
2023/12/04 02:47:48;;;;;;;20.05;10.90;;;-1.00;99.90;;;-1.04;85.69;100627.63;4893028;28;25029;-69
2023/12/04 02:50:10;;;;;;;20.52;10.90;;;-0.90;99.90;;;-1.09;86.14;100619.25;4893509;28;24434;-69
2023/12/04 02:52:32;;;;;;;17.83;9.80;;;-1.00;99.90;;;-1.04;85.54;100622.50;4892755;28;24462;-70
2023/12/04 02:54:54;;;;;;;17.85;10.10;;;-1.00;99.90;;;-1.01;85.78;100615.63;4891789;28;24455;-69
2023/12/04 02:57:16;;;;;;;19.80;10.23;;;-1.00;99.90;;;-1.02;85.56;100607.94;4884672;28;25413;-70
2023/12/04 02:59:38;;;;;;;17.95;10.80;;;-1.00;99.90;;;-1.05;86.27;100596.09;4884727;28;24427;-69
2023/12/04 03:02:00;;;;;;;20.73;10.60;;;-1.00;99.90;;;-1.02;86.21;100596.00;4877956;28;24530;-70
2023/12/04 03:04:22;;;;;;;19.98;10.63;;;-0.90;99.90;;;-1.01;85.84;100589.16;4886292;28;25015;-69
2023/12/04 03:06:44;;;;;;;19.25;10.95;;;-0.90;99.90;;;-1.02;86.27;100590.03;4885503;28;24466;-70
2023/12/04 03:09:06;;;;;;;18.40;10.77;;;-0.90;99.90;;;-1.12;86.41;100580.91;4881787;28;24481;-67
2023/12/04 03:11:29;;;;;;;20.05;11.18;;;-1.00;99.90;;;-1.06;85.73;100579.03;4881426;28;24835;-67
2023/12/04 03:13:51;;;;;;;18.15;10.50;;;-1.00;99.90;;;-1.00;85.62;100575.50;4881454;28;24554;-69
2023/12/04 03:16:18;;;;;;;19.00;10.15;;;-0.90;99.90;;;-0.98;86.06;100574.53;4874273;28;24530;-69
2023/12/04 03:18:40;;;;;;;18.60;10.20;;;-0.90;99.90;;;-0.96;85.82;100577.09;4878840;28;24443;-69
2023/12/04 03:21:02;;;;;;;18.52;10.35;;;-0.90;99.90;;;-0.93;85.86;100566.75;4874371;28;24488;-69
2023/12/04 03:23:27;;;;;;;17.42;10.70;;;-0.90;99.90;;;-0.91;86.16;100562.44;4875099;28;24510;-71
2023/12/04 03:25:49;;;;;;;19.65;10.55;;;-0.90;99.90;;;-0.89;85.90;100576.03;4889739;28;25303;-70
2023/12/04 03:28:11;;;;;;;19.60;10.33;;;-0.90;99.90;;;-0.89;85.61;100576.03;4892762;28;24430;-70
2023/12/04 03:30:33;;;;;;;17.73;10.50;;;-0.80;99.90;;;-0.87;85.40;100569.16;4890528;28;24521;-68
2023/12/04 03:32:55;;;;;;;17.08;10.60;;;-0.80;99.90;;;-0.89;85.50;100569.19;4893029;28;24446;-70
2023/12/04 03:35:17;;;;;;;17.13;10.23;;;-0.80;99.90;;;-0.90;85.10;100564.97;4893624;28;24529;-67
2023/12/04 03:37:38;;;;;;;17.13;10.40;;;-0.80;99.90;;;-0.89;84.86;100561.50;4891497;28;24427;-66
2023/12/04 03:40:00;;;;;;;18.95;10.25;;;-0.90;99.90;;;-0.91;85.09;100544.50;4890537;28;24537;-68
2023/12/04 03:42:22;;;;;;;19.80;11.10;;;-0.90;99.90;;;-0.91;84.95;100536.81;4880462;28;24987;-69
2023/12/04 03:44:44;;;;;;;18.77;10.70;;;-0.90;99.90;;;-0.92;85.16;100527.47;4884538;28;24530;-69
2023/12/04 03:47:06;;;;;;;19.75;11.30;;;-0.90;99.90;;;-0.93;85.05;100513.81;4885466;28;24454;-68
2023/12/04 03:49:28;;;;;;;17.38;10.45;;;-0.80;99.90;;;-0.94;85.19;100506.19;4881866;28;24500;-67
2023/12/04 03:51:51;;;;;;;17.10;10.40;;;-0.90;99.90;;;-0.95;85.18;100512.16;4872588;28;24430;-69
2023/12/04 03:54:13;;;;;;;19.15;10.68;;;-0.90;99.90;;;-0.96;85.57;100510.50;4879567;28;24434;-69
2023/12/04 03:56:35;;;;;;;19.38;11.00;;;-0.90;99.90;;;-1.00;85.20;100511.47;4872624;28;24466;-69
2023/12/04 03:58:57;;;;;;;17.90;10.63;;;-0.90;99.90;;;-1.02;85.64;100518.31;4885593;28;25100;-70
2023/12/04 04:01:19;;;;;;;19.83;10.25;;;-1.00;99.90;;;-1.02;85.83;100519.19;4873424;28;24518;-69
2023/12/04 04:03:42;;;;;;;18.95;10.23;;;-0.90;99.90;;;-1.02;85.60;100519.19;4884737;28;24446;-69
2023/12/04 04:06:07;;;;;;;16.88;9.88;;;-0.90;99.90;;;-1.00;85.54;100511.47;4882438;28;24451;-70
2023/12/04 04:08:29;;;;;;;19.27;10.35;;;-0.90;99.90;;;-0.99;85.96;100523.38;4876611;28;24473;-69
2023/12/04 04:10:51;;;;;;;17.67;10.35;;;-0.90;99.90;;;-1.02;85.50;100514.06;4883659;28;24427;-67
2023/12/04 04:13:13;;;;;;;17.15;9.85;;;-1.00;99.90;;;-1.01;85.28;100525.13;4887420;28;24569;-67
2023/12/04 04:15:35;;;;;;;18.25;10.65;;;-0.90;99.90;;;-0.99;85.92;100529.34;4875503;28;24441;-68
2023/12/04 04:17:57;;;;;;;17.13;10.57;;;-0.90;99.90;;;-0.96;85.55;100531.00;4895657;28;24489;-71
2023/12/04 04:20:20;;;;;;;18.38;10.43;;;-0.90;99.90;;;-0.93;85.47;100530.91;4887339;28;24535;-70
2023/12/04 04:22:42;;;;;;;20.15;11.18;;;-0.90;99.90;;;-0.92;85.08;100530.88;4886199;28;24447;-70
2023/12/04 04:25:08;;;;;;;19.52;11.13;;;-0.90;99.90;;;-0.92;84.79;100524.91;4899152;28;24426;-69
2023/12/04 04:27:30;;;;;;;17.90;10.70;;;-0.90;99.90;;;-0.92;84.80;100525.75;4891181;28;24446;-70
2023/12/04 04:29:54;;;;;;;19.88;11.00;;;-0.90;99.90;;;-0.92;85.39;100522.34;4885483;28;24554;-65
2023/12/04 04:32:17;;;;;;;18.50;11.05;;;-0.90;99.90;;;-0.98;85.66;100523.31;4888166;28;24512;-69
2023/12/04 04:34:39;;;;;;;17.50;10.20;;;-0.90;99.90;;;-0.96;84.98;100529.25;4880530;28;24514;-69
2023/12/04 04:37:01;;;;;;;17.73;10.93;;;-0.90;99.90;;;-0.95;85.09;100532.66;4879652;28;25062;-68
2023/12/04 04:39:23;;;;;;;19.50;10.35;;;-0.90;99.90;;;-0.96;85.06;100524.13;4891525;28;24454;-70
2023/12/04 04:41:45;;;;;;;18.27;10.10;;;-0.90;99.90;;;-0.96;84.57;100531.81;4889897;28;25043;-67
2023/12/04 04:44:07;;;;;;;19.20;10.60;;;-0.90;99.90;;;-0.99;85.04;100529.34;4891862;28;24427;-68
2023/12/04 04:46:29;;;;;;;15.98;9.77;;;-0.90;99.90;;;-1.00;85.00;100529.41;4891061;28;24983;-69
2023/12/04 04:48:50;;;;;;;17.85;10.45;;;-0.90;99.90;;;-1.01;85.18;100520.88;4891816;28;24427;-68
2023/12/04 04:51:15;;;;;;;19.65;10.68;;;-1.00;99.90;;;-1.03;85.66;100511.53;4894086;28;24447;-69
2023/12/04 04:53:40;;;;;;;18.92;10.95;;;-1.00;99.90;;;-1.05;85.77;100510.75;4891303;28;24496;-67
2023/12/04 04:56:02;;;;;;;18.35;10.45;;;-1.00;99.90;;;-1.08;86.11;100501.41;4899172;28;24523;-69
2023/12/04 04:58:24;;;;;;;18.38;11.18;;;-1.00;99.90;;;-1.06;85.76;100504.78;4882860;28;24457;-70
2023/12/04 05:00:47;;;;;;;16.58;10.00;;;-1.00;99.90;;;-1.07;85.64;100507.38;4886783;28;24439;-70
2023/12/04 05:03:09;;;;;;;21.15;10.95;;;-1.00;99.90;;;-1.08;86.02;100498.00;4897803;28;24435;-68
2023/12/04 05:05:31;;;;;;;19.08;10.65;;;-1.00;99.90;;;-1.08;85.52;100492.88;4895616;28;24448;-70
2023/12/04 05:07:53;;;;;;;18.67;10.77;;;-1.00;99.90;;;-1.07;85.08;100492.03;4895706;28;25013;-68
2023/12/04 05:10:15;;;;;;;18.92;10.63;;;-1.00;99.90;;;-1.08;85.38;100498.00;4894950;28;24735;-67
2023/12/04 05:12:37;;;;;;;18.33;10.30;;;-1.00;99.90;;;-1.09;85.53;100486.09;4898238;28;24457;-64
2023/12/04 05:14:58;;;;;;;17.50;10.23;;;-1.00;99.90;;;-1.10;85.05;100482.69;4894770;28;24470;-67
2023/12/04 05:17:21;;;;;;;16.60;9.63;;;-1.00;99.90;;;-1.08;85.28;100488.63;4887037;28;24493;-67
2023/12/04 05:19:43;;;;;;;17.10;9.82;;;-1.00;99.90;;;-1.06;85.08;100486.00;4890899;28;24529;-67
2023/12/04 05:22:05;;;;;;;16.80;9.98;;;-1.00;99.90;;;-1.06;84.83;100479.16;4894845;28;24501;-66
2023/12/04 05:24:27;;;;;;;18.35;10.40;;;-1.00;99.90;;;-1.06;84.23;100480.88;4891897;28;24431;-66
2023/12/04 05:26:48;;;;;;;19.67;10.23;;;-1.00;99.90;;;-1.05;84.96;100488.53;4893816;28;24456;-67
2023/12/04 05:29:10;;;;;;;19.27;10.73;;;-1.00;99.90;;;-1.05;84.61;100487.69;4894894;28;24481;-68
2023/12/04 05:31:32;;;;;;;18.95;10.60;;;-1.00;99.90;;;-1.07;84.25;100479.22;4878073;28;25052;-66
2023/12/04 05:33:54;;;;;;;19.30;10.03;;;-1.00;99.90;;;-1.07;84.91;100480.06;4888707;28;24978;-69
2023/12/04 05:36:16;;;;;;;18.40;9.80;;;-1.00;99.90;;;-1.05;84.29;100477.47;4895687;28;24438;-69
2023/12/04 05:38:38;;;;;;;18.02;9.98;;;-1.00;99.90;;;-1.07;84.53;100481.78;4877417;28;25455;-69
2023/12/04 05:41:00;;;;;;;19.98;10.20;;;-1.00;99.90;;;-1.10;84.69;100484.41;4887661;28;25009;-69
2023/12/04 05:43:22;;;;;;;17.88;9.90;;;-1.00;99.90;;;-1.10;84.69;100495.50;4888089;28;24486;-69
2023/12/04 05:45:44;;;;;;;15.85;9.27;;;-1.00;99.90;;;-1.13;84.84;100494.75;4887108;28;24466;-67
2023/12/04 05:48:06;;;;;;;18.17;10.38;;;-1.00;99.90;;;-1.12;84.33;100494.69;4895814;28;24948;-69
2023/12/04 05:50:28;;;;;;;18.25;9.77;;;-1.00;99.90;;;-1.11;84.54;100490.44;4891280;28;24435;-68
2023/12/04 05:52:51;;;;;;;19.52;10.93;;;-1.00;99.90;;;-1.12;84.61;100474.22;4879543;28;25257;-68
2023/12/04 05:55:13;;;;;;;20.58;10.48;;;-1.00;99.90;;;-1.10;84.42;100471.59;4886427;28;24517;-68
2023/12/04 05:57:35;;;;;;;20.48;10.70;;;-1.10;99.90;;;-1.08;84.85;100467.28;4891170;28;24474;-69
2023/12/04 05:59:57;;;;;;;18.73;10.20;;;-1.00;99.90;;;-1.08;85.13;100454.47;4886391;28;24492;-69
2023/12/04 06:02:19;;;;;;;18.27;10.23;;;-1.00;99.90;;;-1.05;85.24;100450.13;4892501;28;24446;-69
2023/12/04 06:04:41;;;;;;;20.40;10.35;;;-1.00;99.90;;;-1.04;84.49;100454.38;4885852;28;24489;-69
2023/12/04 06:07:03;;;;;;;17.48;9.68;;;-1.00;99.90;;;-1.03;84.98;100465.44;4886435;28;24546;-68
2023/12/04 06:09:25;;;;;;;17.30;10.32;;;-1.00;99.90;;;-1.00;84.86;100468.75;4888305;28;24430;-68
2023/12/04 06:11:47;;;;;;;18.13;9.40;;;-1.00;99.90;;;-0.97;84.77;100466.13;4909382;28;24543;-69
2023/12/04 06:14:10;;;;;;;16.00;9.20;;;-0.90;99.90;;;-1.07;83.70;100449.34;4900283;28;24457;-69
2023/12/04 06:16:32;;;;;;;16.63;9.40;;;-0.90;99.90;;;-1.14;83.99;100447.81;4878345;28;25055;-67
2023/12/04 06:18:54;;;;;;;18.60;9.35;;;-1.00;99.90;;;-1.15;84.48;100445.31;4875340;28;25271;-68
2023/12/04 06:21:16;;;;;;;16.05;9.60;;;-1.10;99.90;;;-1.16;85.09;100441.91;4883342;28;24469;-69
2023/12/04 06:23:38;;;;;;;18.98;10.05;;;-1.10;99.90;;;-1.11;84.60;100436.66;4883238;28;24947;-68
2023/12/04 06:26:01;;;;;;;20.88;10.60;;;-1.10;99.90;;;-1.08;85.11;100439.97;4880523;28;24553;-68
2023/12/04 06:28:23;;;;;;;18.45;10.10;;;-1.10;99.90;;;-1.03;84.44;100442.41;4882409;28;24497;-66
2023/12/04 06:30:45;;;;;;;17.35;9.80;;;-1.00;99.90;;;-1.01;84.76;100428.69;4886443;28;24517;-69
2023/12/04 06:33:08;;;;;;;17.17;10.40;;;-1.00;99.90;;;-0.98;84.03;100436.25;4879802;28;24493;-69
2023/12/04 06:35:30;;;;;;;18.77;10.20;;;-0.90;99.90;;;-0.93;84.56;100431.00;4875452;28;24446;-68
2023/12/04 06:37:54;;;;;;;19.48;11.40;;;-0.90;99.90;;;-0.92;84.19;100420.75;4875462;28;24486;-67
2023/12/04 06:40:17;;;;;;;21.48;12.75;;;-0.90;99.90;;;-0.89;84.12;100418.09;4875790;28;24454;-68
2023/12/04 06:42:40;;;;;;;20.45;11.80;;;-0.90;99.90;;;-0.83;84.16;100406.81;4883057;28;25059;-69
2023/12/04 06:45:03;;;;;;;18.90;11.10;;;-0.80;99.90;;;-0.79;84.00;100413.53;4890206;28;24556;-68
2023/12/04 06:47:25;;;;;;;17.23;10.25;;;-0.80;99.90;;;-0.77;83.52;100397.22;4877705;28;24462;-67
2023/12/04 06:49:47;;;;;;;19.77;11.57;;;-0.80;99.90;;;-0.72;83.18;100391.16;4883629;28;24439;-70
2023/12/04 06:52:09;;;;;;;16.38;9.50;;;-0.70;99.90;;;-0.68;83.15;100379.94;4887751;28;24466;-70
2023/12/04 06:54:31;;;;;;;17.20;9.60;;;-0.70;99.90;;;-0.66;83.10;100378.97;4888424;28;24433;-68
2023/12/04 06:56:54;;;;;;;17.00;10.35;;;-0.60;99.90;;;-0.63;83.08;100370.34;4875874;28;24463;-69
2023/12/04 06:59:16;;;;;;;17.10;9.90;;;-0.60;99.90;;;-0.61;82.86;100368.59;4888945;28;24501;-69
2023/12/04 07:01:38;;;;;;;18.83;10.40;;;-0.60;99.90;;;-0.58;83.45;100376.19;4892958;28;24480;-69
2023/12/04 07:04:00;;;;;;;19.05;10.68;;;-0.60;99.90;;;-0.62;83.56;100375.47;4883179;28;24449;-67
2023/12/04 07:06:22;;;;;;;18.40;9.65;;;-0.60;99.90;;;-0.61;83.59;100379.69;4889805;28;24946;-69
2023/12/04 07:08:44;;;;;;;17.25;9.88;;;-0.60;99.90;;;-0.58;83.54;100373.63;4893882;28;24423;-69
2023/12/04 07:11:08;;;;;;;18.02;10.55;;;-0.60;99.90;;;-0.58;83.79;100361.66;4891629;28;24448;-69
2023/12/04 07:13:30;;;;;;;16.02;9.55;;;-0.60;99.90;;;-0.54;84.48;100365.81;4893537;28;24942;-69
2023/12/04 07:15:52;;;;;;;17.58;9.90;;;-0.50;99.90;;;-0.57;84.02;100367.59;4887896;28;24443;-69
2023/12/04 07:18:14;;;;;;;17.80;10.60;;;-0.50;99.90;;;-0.60;84.60;100360.88;4892148;28;24525;-69
2023/12/04 07:20:36;;;;;;;18.48;10.00;;;-0.60;99.90;;;-0.55;84.92;100361.56;4892175;28;24527;-69
2023/12/04 07:22:58;;;;;;;16.63;9.77;;;-0.50;99.90;;;-0.55;84.51;100366.66;4895350;28;24546;-67
2023/12/04 07:25:20;;;;;;;16.80;10.27;;;-0.50;99.90;;;-0.53;85.35;100357.22;4889945;28;24514;-70
2023/12/04 07:27:42;;;;;;;19.77;10.70;;;-0.50;99.90;;;-0.52;85.17;100358.91;4894521;28;24508;-70
2023/12/04 07:30:04;;;;;;;18.20;9.85;;;-0.50;99.90;;;-0.47;85.51;100353.63;4890722;28;24435;-67
2023/12/04 07:32:26;;;;;;;22.30;12.32;;;-0.50;99.90;;;-0.45;85.06;100360.41;4888355;28;24446;-69
2023/12/04 07:34:49;;;;;;;22.52;11.50;;;-0.40;99.90;;;-0.43;84.88;100355.22;4890003;28;24454;-67
2023/12/04 07:37:11;;;;;;;21.90;11.70;;;-0.40;99.90;;;-0.40;85.04;100368.75;4883535;28;24495;-68
2023/12/04 07:39:33;;;;;;;17.63;10.32;;;-0.40;99.90;;;-0.38;85.14;100359.28;4889646;28;24500;-67
2023/12/04 07:41:55;;;;;;;20.10;11.57;;;-0.40;99.90;;;-0.35;85.26;100354.09;4883386;28;24926;-69
2023/12/04 07:44:32;;;;;;;19.95;10.48;;;-0.40;99.90;;;-0.31;85.60;100355.66;4884825;28;24438;-69
2023/12/04 07:46:54;;;;;;;20.02;11.35;;;-0.30;99.90;;;-0.28;85.04;100359.84;4883196;28;24528;-69
2023/12/04 07:49:16;;;;;;;20.02;10.95;;;-0.30;99.90;;;-0.26;85.13;100355.53;4888669;28;24481;-69
2023/12/04 07:51:38;;;;;;;19.70;10.70;;;-0.30;99.90;;;-0.24;85.05;100359.72;4883823;28;24616;-69
2023/12/04 07:54:01;;;;;;;18.40;10.70;;;-0.30;99.90;;;-0.18;85.30;100361.22;4881367;28;24445;-69
2023/12/04 07:56:25;;;;;;;21.70;11.60;;;-0.20;99.90;;;-0.16;85.23;100362.00;4889264;28;24450;-67
2023/12/04 07:58:47;;;;;;;18.92;10.93;;;-0.20;99.90;;;-0.12;85.24;100354.19;4884587;28;24454;-70
2023/12/04 08:01:09;;;;;;;19.80;11.52;;;-0.20;99.90;;;-0.07;84.73;100348.91;4892677;28;24441;-67
2023/12/04 08:03:31;;;;;;;22.00;12.15;;;-0.10;99.90;;;-0.02;84.71;100355.53;4881725;28;24542;-69
2023/12/04 08:05:53;;;;;;;25.13;13.32;;;-0.10;99.90;;;0.04;84.85;100343.41;4884245;28;24427;-70
2023/12/04 08:08:15;;;;;;;28.85;14.68;;;0.00;99.90;;;0.10;84.61;100344.06;4884150;28;25043;-70
2023/12/04 08:10:37;;;;;;;29.33;14.02;;;0.00;99.90;;;0.12;84.03;100326.88;4887573;28;24450;-70
2023/12/04 08:12:59;;;;;;;27.70;14.20;;;0.10;99.90;;;0.15;84.31;100324.19;4882100;28;24482;-70
2023/12/04 08:15:21;;;;;;;28.20;14.27;;;0.10;99.90;;;0.21;84.28;100325.72;4878659;28;24436;-70
2023/12/04 08:17:43;;;;;;;25.42;13.70;;;0.10;99.90;;;0.32;84.04;100326.19;4872030;28;24478;-69
2023/12/04 08:20:06;;;;;;;28.30;13.93;;;0.20;99.90;;;0.43;83.32;100318.94;4888789;28;24449;-69
2023/12/04 08:22:28;;;;;;;25.92;13.40;;;0.30;99.90;;;0.57;83.16;100316.72;4885066;28;24531;-70
2023/12/04 08:24:50;;;;;;;25.23;12.70;;;0.40;99.90;;;0.72;82.86;100311.03;4890573;28;24439;-70
2023/12/04 08:27:12;;;;;;;24.90;12.63;;;0.60;99.90;;;0.86;81.66;100310.50;4872536;28;24583;-67
2023/12/04 08:29:34;;;;;;;24.90;12.55;;;0.70;99.90;;;0.95;81.37;100299.91;4882151;28;24534;-69
2023/12/04 08:31:56;;;;;;;23.77;12.98;;;0.80;99.90;;;1.03;81.12;100303.00;4850755;28;24496;-70
2023/12/04 08:34:18;;;;;;;22.10;12.40;;;0.90;99.90;;;1.14;80.97;100311.97;4886951;28;24424;-70
2023/12/04 08:36:40;;;;;;;24.50;12.68;;;1.00;99.90;;;1.21;80.82;100292.03;4875220;28;25007;-69
2023/12/04 08:39:07;;;;;;;28.43;13.93;;;1.10;99.90;;;1.30;80.54;100302.75;4889116;28;24438;-67
2023/12/04 08:41:29;;;;;;;25.08;13.38;;;1.10;99.90;;;1.43;79.96;100305.69;4885725;28;24442;-70
2023/12/04 08:43:52;;;;;;;23.52;11.77;;;1.20;99.90;;;1.55;78.94;100306.03;4882571;28;24531;-70
2023/12/04 08:46:14;;;;;;;22.67;12.00;;;1.40;99.90;;;1.71;77.98;100305.41;4897330;28;24425;-68
2023/12/04 08:48:36;;;;;;;21.90;12.98;;;1.50;99.90;;;1.87;78.04;100297.03;4889822;28;24458;-70
2023/12/04 08:50:59;;;;;;;37.35;22.27;;;1.60;99.90;;;1.97;76.84;100298.31;4891718;28;24434;-69
2023/12/04 08:53:20;;;;;;;15.48;9.80;;;1.70;99.90;;;2.03;75.62;100287.75;4881117;28;24445;-69
2023/12/04 08:55:44;;;;;;;12.10;7.57;;;1.80;99.90;;;2.02;74.50;100280.91;4884410;28;24446;-70
2023/12/04 08:58:06;;;;;;;11.18;7.30;;;1.80;99.90;;;2.07;73.38;100288.44;4886827;28;24865;-70
2023/12/04 09:00:28;;;;;;;10.32;6.55;;;1.80;99.90;;;2.10;72.08;100288.31;4882699;28;24443;-70
2023/12/04 09:02:50;;;;;;;10.00;6.30;;;1.90;99.90;;;2.11;71.62;100289.97;4875618;28;24803;-69
2023/12/04 09:05:27;;;;;;;10.75;6.40;;;1.90;99.90;;;2.13;70.69;100278.72;4883127;28;24507;-69
2023/12/04 09:07:49;;;;;;;9.75;6.32;;;1.90;99.90;;;2.17;70.77;100279.44;4884882;28;24562;-69
2023/12/04 09:10:31;;;;;;;8.35;6.00;;;2.00;99.90;;;2.18;70.23;100287.09;4887474;28;25019;-68
2023/12/04 09:13:14;;;;;;;9.52;5.80;;;2.00;99.90;;;2.15;70.05;100291.56;4881697;28;24423;-68
2023/12/04 09:15:38;;;;;;;10.40;6.10;;;2.00;99.90;;;2.13;70.43;100293.34;4887387;28;21333;-66
2023/12/04 09:18:00;;;;;;;10.95;6.00;;;2.00;99.90;;;2.09;70.28;100287.47;4893603;28;20867;-69
2023/12/04 09:20:22;;;;;;;9.38;6.13;;;1.90;99.90;;;2.00;70.61;100294.78;4894346;28;24431;-68
2023/12/04 09:22:44;;;;;;;8.60;5.95;;;1.90;99.90;;;1.93;70.83;100293.34;4883366;28;24520;-68
2023/12/04 09:25:14;;;;;;;8.30;5.80;;;1.80;99.90;;;1.86;70.62;100290.19;4896569;28;24423;-69
2023/12/04 09:27:36;;;;;;;7.05;5.55;;;1.80;99.90;;;1.82;70.50;100290.38;4885922;28;24509;-67
2023/12/04 09:29:58;;;;;;;8.10;5.30;;;1.70;99.90;;;1.78;70.37;100286.25;4876517;28;24485;-69
2023/12/04 09:32:20;;;;;;;7.53;5.10;;;1.70;99.90;;;1.47;70.23;100286.66;4878709;28;24958;-70
2023/12/04 09:34:42;;;;;;;6.63;5.00;;;1.60;99.90;;;1.46;70.35;100285.00;4883597;28;24442;-69
2023/12/04 09:37:04;;;;;;;10.73;5.93;;;1.50;99.90;;;1.44;70.56;100285.09;4894092;28;24870;-69
2023/12/04 09:39:32;;;;;;;6.15;4.70;;;1.40;99.90;;;1.38;70.54;100281.91;4878328;28;27001;-68
2023/12/04 09:41:55;;;;;;;6.80;4.95;;;1.40;99.90;;;1.36;70.70;100278.56;4885325;28;24988;-71
2023/12/04 09:44:17;;;;;;;6.78;4.60;;;1.30;99.90;;;1.25;70.88;100263.59;4885999;28;24423;-68
2023/12/04 09:46:40;;;;;;;8.13;4.82;;;1.30;99.90;;;1.21;71.11;100263.75;4890302;28;24449;-69